createdAt,value
2022-12-19T00:00:26.886Z,1029.3
2022-12-19T00:15:24.048Z,1029.0
2022-12-19T00:30:24.274Z,1029.3
2022-12-19T00:45:24.104Z,1029.0
2022-12-19T01:00:26.067Z,1029.0
2022-12-19T01:15:25.100Z,1029.0
2022-12-19T01:30:24.526Z,1029.0
2022-12-19T01:45:27.686Z,1029.0
2022-12-19T02:00:27.283Z,1029.0
2022-12-19T02:15:24.124Z,1029.0
2022-12-19T02:30:24.912Z,1028.7
2022-12-19T02:45:28.807Z,1028.0
2022-12-19T03:00:30.645Z,1028.5
2022-12-19T03:15:24.387Z,1028.0
2022-12-19T03:30:24.681Z,1029.0
2022-12-19T03:45:33.365Z,1029.0
2022-12-19T04:00:40.276Z,1029.0
2022-12-19T04:15:23.529Z,1029.0
2022-12-19T04:30:23.747Z,1029.0
2022-12-19T04:45:23.478Z,1029.0
2022-12-19T05:00:24.257Z,1029.0
2022-12-19T05:15:23.746Z,1028.0
2022-12-19T05:30:23.733Z,1028.0
2022-12-19T05:45:23.946Z,1028.0
2022-12-19T06:00:28.134Z,1028.0
2022-12-19T06:15:23.769Z,1028.0
2022-12-19T06:30:24.327Z,1028.0
2022-12-19T06:45:23.696Z,1028.0
2022-12-19T07:00:36.208Z,1028.0
2022-12-19T07:15:23.976Z,1028.0
2022-12-19T07:30:24.363Z,1028.0
2022-12-19T07:45:23.957Z,1028.0
2022-12-19T08:00:26.886Z,1028.0
2022-12-19T08:15:23.961Z,1028.0
2022-12-19T08:30:23.925Z,1028.0
2022-12-19T08:45:23.577Z,1028.0
2022-12-19T09:00:28.059Z,1028.0
2022-12-19T09:15:23.902Z,1028.0
2022-12-19T09:30:23.780Z,1028.0
2022-12-19T09:45:32.190Z,1028.0
2022-12-19T10:00:24.457Z,1028.0
2022-12-19T10:15:24.521Z,1028.0
2022-12-19T10:30:24.498Z,1028.0
2022-12-19T10:45:24.165Z,1027.3
2022-12-19T11:00:35.326Z,1027.0
2022-12-19T11:22:08.549Z,1027.0
2022-12-19T11:31:29.933Z,1027.0
2022-12-19T11:45:23.940Z,1027.0
2022-12-19T12:00:33.434Z,1026.5
2022-12-19T12:25:09.684Z,1026.7
2022-12-19T12:31:49.898Z,1027.0
2022-12-19T12:45:24.212Z,1026.3
2022-12-19T13:00:39.583Z,1026.0
2022-12-19T13:15:24.873Z,1026.0
2022-12-19T13:30:24.790Z,1026.0
2022-12-19T13:45:24.076Z,1026.0
2022-12-19T14:00:35.305Z,1026.0
2022-12-19T14:15:23.239Z,1026.0
2022-12-19T14:30:28.326Z,1026.0
2022-12-19T14:52:35.073Z,1026.3
2022-12-19T15:01:08.400Z,1026.0
2022-12-19T15:15:23.892Z,1026.0
2022-12-19T15:30:27.882Z,1026.0
2022-12-19T15:45:23.390Z,1026.0
2022-12-19T16:00:28.157Z,1026.0
2022-12-19T16:15:24.579Z,1026.0
2022-12-19T16:30:25.715Z,1026.0
2022-12-19T16:45:23.683Z,1026.0
2022-12-19T17:00:23.772Z,1026.0
2022-12-19T17:15:23.496Z,1026.0
2022-12-19T17:30:26.506Z,1026.0
2022-12-19T17:45:23.812Z,1026.0
2022-12-19T18:00:31.529Z,1026.0
2022-12-19T18:15:24.116Z,1026.0
2022-12-19T18:30:28.483Z,1026.0
2022-12-19T18:45:23.801Z,1026.0
2022-12-19T19:00:31.786Z,1026.0
2022-12-19T19:15:23.762Z,1026.0
2022-12-19T19:30:27.708Z,1026.0
2022-12-19T19:45:23.828Z,1026.0
2022-12-19T20:00:27.572Z,1026.0
2022-12-19T20:12:12.526Z,1026.0
2022-12-19T20:15:24.009Z,1026.0
2022-12-19T20:30:32.905Z,1026.0
2022-12-19T20:45:33.072Z,1026.0
2022-12-19T21:00:35.915Z,1026.0
2022-12-19T21:15:23.425Z,1026.0
2022-12-19T21:30:23.575Z,1026.0
2022-12-19T21:45:23.492Z,1026.0
2022-12-19T22:00:24.014Z,1026.0
2022-12-19T22:15:23.293Z,1026.0
2022-12-19T22:30:23.973Z,1026.0
2022-12-19T22:45:23.731Z,1026.0
2022-12-19T23:03:08.214Z,1026.0
2022-12-19T23:15:23.718Z,1026.0
2022-12-19T23:30:25.501Z,1026.0
2022-12-19T23:45:23.700Z,1026.0
